Galena, MO (65656)

9:16 PM CDT on August 22, 2014 (GMT -0500)
Branson West Muni - Emerson F | Change Station
CLOSE
Current Station
Airport
Location: Branson West Muni - Emerson F,
Elevation: 1348 ft
Nearby Weather Stations
Active Advisory: Heat Advisory

Elev 1348 ft 36.70 °N, 93.40 °W | Updated 21 minutes ago

Clear
Clear
86 °F
Feels Like 90 °F
N
8
Wind Variable Wind from SW

Today
High -- | Low -- °F
--% Chance of Precip.
Yesterday
High -- | Low -- °F
Precip. -- in
6:36 AM 7:56 PM
Waning Crescent, 6% visible
Pressure 29.99 in
Visibility 10.0 miles
Clouds Clear
Heat Index 90 °F
Dew Point 70 °F
Humidity 58%
Rainfall 0.00 in
Snow Depth Not available.
UV 0 out of 12
Pollen 10.70 out of 12
Air Quality Not available.
Flu Activity Not available.
METAR KFWB 230155Z AUTO 22007KT 10SM CLR 30/21 A2999 RMK AO2

More Conditions Fewer Conditions

Pressure 29.99 in
Visibility 10.0 miles
Clouds Clear
Heat Index 90 °F
Dew Point 70 °F
Humidity 58%
Rainfall 0.00 in
Snow Depth Not available.
UV 0 out of 12
Pollen 10.70 out of 12
Air Quality Not available.
Flu Activity Not available.
METAR KFWB 230155Z AUTO 22007KT 10SM CLR 30/21 A2999 RMK AO2

More Conditions Fewer Conditions

10-Day Weather Forecast

Almanac

Astronomy

Aug. 22, 2014 Rise Set
Actual Time 6:36 AM CDT 7:56 PM CDT
Civil Twilight 6:09 AM CDT 8:23 PM CDT
Nautical Twilight 5:37 AM CDT 8:55 PM CDT
Astronomical Twilight 5:03 AM CDT 9:29 PM CDT
Moon 4:01 AM CDT (8/22) 6:03 PM CDT (8/22)
Length of Visible Light 14h 13m
Length of Day
13h 19m
Tomorrow will be 2m 10s shorter.
Waning Crescent, 6% of the Moon is Illuminated
Today
Waning Crescent
Aug 25
New
Sep 2
First Quarter
Sep 8
Full
Sep 15
Last Quarter

Today's Extremes

State Highs State Lows

Community

WunderPhotos

Upload Photos

1,746,346 photos uploaded!

WunderBlogs® & News

Nearby

Snow Depth

Station Depth Elevation
No new snow has been reported.

Earthquake Activity

City Distance Mag. Time & Date
No recent earthquake activity has been reported nearby.
Minimum magnitude displayed is 2.5.

Coastal Water Temperatures

Place Temperature
No Stations Reporting

Nearby Weather Stations